sensor_id;sensor_type;location;lat;lon;timestamp;P1;durP1;ratioP1;P2;durP2;ratioP2
2416;SDS011;1219;48.736;9.330;2022-12-18T00:03:52;44.13;;;27.77;;
2416;SDS011;1219;48.736;9.330;2022-12-18T00:06:18;55.63;;;27.10;;
2416;SDS011;1219;48.736;9.330;2022-12-18T00:08:45;70.87;;;29.40;;
2416;SDS011;1219;48.736;9.330;2022-12-18T00:11:12;62.57;;;31.50;;
2416;SDS011;1219;48.736;9.330;2022-12-18T00:13:38;58.87;;;31.60;;
2416;SDS011;1219;48.736;9.330;2022-12-18T00:16:05;59.80;;;26.43;;
2416;SDS011;1219;48.736;9.330;2022-12-18T00:18:32;56.93;;;31.17;;
2416;SDS011;1219;48.736;9.330;2022-12-18T00:20:58;63.60;;;29.83;;
2416;SDS011;1219;48.736;9.330;2022-12-18T00:23:25;61.53;;;31.00;;
2416;SDS011;1219;48.736;9.330;2022-12-18T00:25:51;69.93;;;30.47;;
2416;SDS011;1219;48.736;9.330;2022-12-18T00:28:17;61.07;;;31.77;;
2416;SDS011;1219;48.736;9.330;2022-12-18T00:30:43;60.30;;;28.00;;
2416;SDS011;1219;48.736;9.330;2022-12-18T00:33:09;66.33;;;30.67;;
2416;SDS011;1219;48.736;9.330;2022-12-18T00:35:35;67.50;;;30.40;;
2416;SDS011;1219;48.736;9.330;2022-12-18T00:38:01;60.60;;;29.77;;
2416;SDS011;1219;48.736;9.330;2022-12-18T00:40:27;60.40;;;28.80;;
2416;SDS011;1219;48.736;9.330;2022-12-18T00:42:53;56.90;;;28.17;;
2416;SDS011;1219;48.736;9.330;2022-12-18T00:45:28;69.00;;;29.87;;
2416;SDS011;1219;48.736;9.330;2022-12-18T00:47:55;61.93;;;31.17;;
2416;SDS011;1219;48.736;9.330;2022-12-18T00:50:22;67.30;;;33.00;;
2416;SDS011;1219;48.736;9.330;2022-12-18T00:52:48;59.80;;;29.93;;
2416;SDS011;1219;48.736;9.330;2022-12-18T00:55:14;62.93;;;26.97;;
2416;SDS011;1219;48.736;9.330;2022-12-18T00:57:40;56.33;;;28.90;;
2416;SDS011;1219;48.736;9.330;2022-12-18T01:00:07;63.47;;;28.70;;
2416;SDS011;1219;48.736;9.330;2022-12-18T01:02:34;62.70;;;27.53;;
2416;SDS011;1219;48.736;9.330;2022-12-18T01:05:00;54.13;;;26.83;;
2416;SDS011;1219;48.736;9.330;2022-12-18T01:07:26;55.37;;;25.83;;
2416;SDS011;1219;48.736;9.330;2022-12-18T01:09:52;65.10;;;30.73;;
2416;SDS011;1219;48.736;9.330;2022-12-18T01:12:18;55.67;;;27.50;;
2416;SDS011;1219;48.736;9.330;2022-12-18T01:14:44;69.03;;;30.00;;
2416;SDS011;1219;48.736;9.330;2022-12-18T01:17:10;56.60;;;28.10;;
2416;SDS011;1219;48.736;9.330;2022-12-18T01:19:36;61.23;;;30.23;;
2416;SDS011;1219;48.736;9.330;2022-12-18T01:22:02;60.73;;;29.10;;
2416;SDS011;1219;48.736;9.330;2022-12-18T01:24:28;58.50;;;25.53;;
2416;SDS011;1219;48.736;9.330;2022-12-18T01:26:54;50.50;;;25.57;;
2416;SDS011;1219;48.736;9.330;2022-12-18T01:29:22;58.77;;;28.47;;
2416;SDS011;1219;48.736;9.330;2022-12-18T01:31:48;52.77;;;27.07;;
2416;SDS011;1219;48.736;9.330;2022-12-18T01:34:14;62.27;;;27.90;;
2416;SDS011;1219;48.736;9.330;2022-12-18T01:36:40;59.53;;;27.50;;
2416;SDS011;1219;48.736;9.330;2022-12-18T01:39:07;53.13;;;25.77;;
2416;SDS011;1219;48.736;9.330;2022-12-18T01:41:33;53.27;;;24.63;;
2416;SDS011;1219;48.736;9.330;2022-12-18T01:47:03;45.27;;;23.30;;
2416;SDS011;1219;48.736;9.330;2022-12-18T01:49:29;40.07;;;23.37;;
2416;SDS011;1219;48.736;9.330;2022-12-18T01:51:55;42.10;;;23.03;;
2416;SDS011;1219;48.736;9.330;2022-12-18T01:54:20;47.73;;;24.70;;
2416;SDS011;1219;48.736;9.330;2022-12-18T01:56:46;52.63;;;25.60;;
2416;SDS011;1219;48.736;9.330;2022-12-18T01:59:12;43.73;;;22.43;;
2416;SDS011;1219;48.736;9.330;2022-12-18T02:01:39;49.53;;;24.03;;
2416;SDS011;1219;48.736;9.330;2022-12-18T02:06:46;39.30;;;20.23;;
2416;SDS011;1219;48.736;9.330;2022-12-18T02:09:14;42.77;;;20.67;;
2416;SDS011;1219;48.736;9.330;2022-12-18T02:11:53;51.83;;;24.20;;
2416;SDS011;1219;48.736;9.330;2022-12-18T02:17:14;36.67;;;20.10;;
2416;SDS011;1219;48.736;9.330;2022-12-18T02:22:29;48.50;;;23.67;;
2416;SDS011;1219;48.736;9.330;2022-12-18T02:27:45;50.10;;;22.33;;
2416;SDS011;1219;48.736;9.330;2022-12-18T02:30:12;49.37;;;23.10;;
2416;SDS011;1219;48.736;9.330;2022-12-18T02:32:42;51.17;;;24.37;;
2416;SDS011;1219;48.736;9.330;2022-12-18T02:35:13;43.77;;;19.27;;
2416;SDS011;1219;48.736;9.330;2022-12-18T02:37:39;52.40;;;25.60;;
2416;SDS011;1219;48.736;9.330;2022-12-18T02:40:07;52.67;;;24.90;;
2416;SDS011;1219;48.736;9.330;2022-12-18T02:42:33;44.43;;;22.23;;
2416;SDS011;1219;48.736;9.330;2022-12-18T02:44:59;48.87;;;23.40;;
2416;SDS011;1219;48.736;9.330;2022-12-18T02:47:28;55.77;;;22.97;;
2416;SDS011;1219;48.736;9.330;2022-12-18T02:57:30;40.23;;;20.40;;
2416;SDS011;1219;48.736;9.330;2022-12-18T03:00:04;42.97;;;21.00;;
2416;SDS011;1219;48.736;9.330;2022-12-18T03:05:34;43.63;;;20.87;;
2416;SDS011;1219;48.736;9.330;2022-12-18T03:07:53;50.83;;;22.00;;
2416;SDS011;1219;48.736;9.330;2022-12-18T03:10:23;48.63;;;23.37;;
2416;SDS011;1219;48.736;9.330;2022-12-18T03:12:51;44.80;;;22.57;;
2416;SDS011;1219;48.736;9.330;2022-12-18T03:15:31;40.97;;;18.90;;
2416;SDS011;1219;48.736;9.330;2022-12-18T03:18:01;49.40;;;22.67;;
2416;SDS011;1219;48.736;9.330;2022-12-18T03:20:29;35.80;;;18.60;;
2416;SDS011;1219;48.736;9.330;2022-12-18T03:23:02;35.87;;;20.10;;
2416;SDS011;1219;48.736;9.330;2022-12-18T03:25:29;39.00;;;18.77;;
2416;SDS011;1219;48.736;9.330;2022-12-18T03:27:56;41.87;;;19.60;;
2416;SDS011;1219;48.736;9.330;2022-12-18T03:30:23;47.57;;;20.07;;
2416;SDS011;1219;48.736;9.330;2022-12-18T03:32:58;45.03;;;20.27;;
2416;SDS011;1219;48.736;9.330;2022-12-18T03:35:31;43.70;;;19.83;;
2416;SDS011;1219;48.736;9.330;2022-12-18T03:37:58;41.03;;;21.93;;
2416;SDS011;1219;48.736;9.330;2022-12-18T03:40:27;41.53;;;20.63;;
2416;SDS011;1219;48.736;9.330;2022-12-18T03:42:57;36.93;;;19.83;;
2416;SDS011;1219;48.736;9.330;2022-12-18T03:45:35;36.27;;;19.60;;
2416;SDS011;1219;48.736;9.330;2022-12-18T03:48:16;45.40;;;21.20;;
2416;SDS011;1219;48.736;9.330;2022-12-18T03:50:53;41.77;;;19.30;;
2416;SDS011;1219;48.736;9.330;2022-12-18T03:53:32;39.07;;;20.27;;
2416;SDS011;1219;48.736;9.330;2022-12-18T03:56:01;40.03;;;21.37;;
2416;SDS011;1219;48.736;9.330;2022-12-18T03:58:28;31.33;;;17.47;;
2416;SDS011;1219;48.736;9.330;2022-12-18T04:00:55;45.70;;;18.90;;
2416;SDS011;1219;48.736;9.330;2022-12-18T04:03:22;32.33;;;18.43;;
2416;SDS011;1219;48.736;9.330;2022-12-18T04:05:50;36.97;;;18.87;;
2416;SDS011;1219;48.736;9.330;2022-12-18T04:08:16;45.37;;;20.50;;
2416;SDS011;1219;48.736;9.330;2022-12-18T04:10:42;36.80;;;17.37;;
2416;SDS011;1219;48.736;9.330;2022-12-18T04:13:09;45.83;;;20.97;;
2416;SDS011;1219;48.736;9.330;2022-12-18T04:15:35;34.87;;;18.47;;
2416;SDS011;1219;48.736;9.330;2022-12-18T04:18:02;41.00;;;18.73;;
2416;SDS011;1219;48.736;9.330;2022-12-18T04:20:28;43.23;;;17.70;;
2416;SDS011;1219;48.736;9.330;2022-12-18T04:22:55;33.07;;;17.83;;
2416;SDS011;1219;48.736;9.330;2022-12-18T04:25:21;28.07;;;16.80;;
2416;SDS011;1219;48.736;9.330;2022-12-18T04:27:47;31.67;;;18.37;;
2416;SDS011;1219;48.736;9.330;2022-12-18T04:30:12;27.20;;;15.20;;
2416;SDS011;1219;48.736;9.330;2022-12-18T04:32:38;32.30;;;18.47;;
2416;SDS011;1219;48.736;9.330;2022-12-18T04:35:04;37.63;;;18.87;;
2416;SDS011;1219;48.736;9.330;2022-12-18T04:37:35;35.00;;;16.10;;
2416;SDS011;1219;48.736;9.330;2022-12-18T04:40:01;44.30;;;18.30;;
2416;SDS011;1219;48.736;9.330;2022-12-18T04:42:27;27.47;;;16.50;;
2416;SDS011;1219;48.736;9.330;2022-12-18T04:44:53;35.70;;;16.57;;
2416;SDS011;1219;48.736;9.330;2022-12-18T04:47:19;35.40;;;16.70;;
2416;SDS011;1219;48.736;9.330;2022-12-18T04:49:45;28.97;;;15.97;;
2416;SDS011;1219;48.736;9.330;2022-12-18T04:52:11;43.03;;;18.53;;
2416;SDS011;1219;48.736;9.330;2022-12-18T04:54:37;31.77;;;16.30;;
2416;SDS011;1219;48.736;9.330;2022-12-18T04:57:03;26.10;;;14.50;;
2416;SDS011;1219;48.736;9.330;2022-12-18T04:59:28;25.83;;;15.80;;
2416;SDS011;1219;48.736;9.330;2022-12-18T05:01:55;18.10;;;12.77;;
2416;SDS011;1219;48.736;9.330;2022-12-18T05:04:21;27.37;;;14.20;;
2416;SDS011;1219;48.736;9.330;2022-12-18T05:06:47;33.73;;;14.93;;
2416;SDS011;1219;48.736;9.330;2022-12-18T05:09:12;32.57;;;14.97;;
2416;SDS011;1219;48.736;9.330;2022-12-18T05:11:38;30.47;;;16.53;;
2416;SDS011;1219;48.736;9.330;2022-12-18T05:14:04;25.00;;;14.03;;
2416;SDS011;1219;48.736;9.330;2022-12-18T05:16:30;30.10;;;15.27;;
2416;SDS011;1219;48.736;9.330;2022-12-18T05:18:56;27.70;;;16.10;;
2416;SDS011;1219;48.736;9.330;2022-12-18T05:21:22;27.23;;;16.20;;
2416;SDS011;1219;48.736;9.330;2022-12-18T05:23:48;29.27;;;15.37;;
2416;SDS011;1219;48.736;9.330;2022-12-18T05:26:16;35.83;;;16.93;;
2416;SDS011;1219;48.736;9.330;2022-12-18T05:28:42;26.27;;;14.50;;
2416;SDS011;1219;48.736;9.330;2022-12-18T05:31:08;32.00;;;16.57;;
2416;SDS011;1219;48.736;9.330;2022-12-18T05:33:34;28.57;;;14.07;;
2416;SDS011;1219;48.736;9.330;2022-12-18T05:36:01;37.33;;;17.80;;
2416;SDS011;1219;48.736;9.330;2022-12-18T05:38:28;26.67;;;15.00;;
2416;SDS011;1219;48.736;9.330;2022-12-18T05:40:54;27.70;;;14.90;;
2416;SDS011;1219;48.736;9.330;2022-12-18T05:43:20;33.03;;;15.17;;
2416;SDS011;1219;48.736;9.330;2022-12-18T05:45:49;35.53;;;16.57;;
2416;SDS011;1219;48.736;9.330;2022-12-18T05:48:15;34.20;;;18.00;;
2416;SDS011;1219;48.736;9.330;2022-12-18T05:50:42;30.57;;;16.27;;
2416;SDS011;1219;48.736;9.330;2022-12-18T05:53:10;34.63;;;16.10;;
2416;SDS011;1219;48.736;9.330;2022-12-18T05:55:37;25.27;;;15.50;;
2416;SDS011;1219;48.736;9.330;2022-12-18T05:58:03;35.20;;;17.67;;
2416;SDS011;1219;48.736;9.330;2022-12-18T06:00:30;24.03;;;15.70;;
2416;SDS011;1219;48.736;9.330;2022-12-18T06:02:57;30.33;;;13.80;;
2416;SDS011;1219;48.736;9.330;2022-12-18T06:05:23;32.47;;;17.17;;
2416;SDS011;1219;48.736;9.330;2022-12-18T06:07:49;26.77;;;14.33;;
2416;SDS011;1219;48.736;9.330;2022-12-18T06:10:15;32.70;;;15.80;;
2416;SDS011;1219;48.736;9.330;2022-12-18T06:12:40;24.67;;;14.10;;
2416;SDS011;1219;48.736;9.330;2022-12-18T06:15:07;28.17;;;16.00;;
2416;SDS011;1219;48.736;9.330;2022-12-18T06:17:33;25.10;;;13.47;;
2416;SDS011;1219;48.736;9.330;2022-12-18T06:19:59;34.67;;;17.40;;
2416;SDS011;1219;48.736;9.330;2022-12-18T06:22:26;29.90;;;14.70;;
2416;SDS011;1219;48.736;9.330;2022-12-18T06:24:52;23.23;;;13.73;;
2416;SDS011;1219;48.736;9.330;2022-12-18T06:27:18;37.47;;;15.87;;
2416;SDS011;1219;48.736;9.330;2022-12-18T06:29:44;30.63;;;16.20;;
2416;SDS011;1219;48.736;9.330;2022-12-18T06:32:10;35.93;;;18.27;;
2416;SDS011;1219;48.736;9.330;2022-12-18T06:34:37;32.97;;;17.60;;
2416;SDS011;1219;48.736;9.330;2022-12-18T06:37:03;26.33;;;15.40;;
2416;SDS011;1219;48.736;9.330;2022-12-18T06:39:29;35.60;;;17.40;;
2416;SDS011;1219;48.736;9.330;2022-12-18T06:41:55;35.00;;;15.53;;
2416;SDS011;1219;48.736;9.330;2022-12-18T06:44:21;25.17;;;16.40;;
2416;SDS011;1219;48.736;9.330;2022-12-18T06:46:47;33.97;;;16.57;;
2416;SDS011;1219;48.736;9.330;2022-12-18T06:49:13;24.53;;;15.00;;
2416;SDS011;1219;48.736;9.330;2022-12-18T06:51:40;30.83;;;15.20;;
2416;SDS011;1219;48.736;9.330;2022-12-18T06:54:06;28.83;;;16.90;;
2416;SDS011;1219;48.736;9.330;2022-12-18T06:56:32;32.27;;;15.07;;
2416;SDS011;1219;48.736;9.330;2022-12-18T06:58:58;33.73;;;16.57;;
2416;SDS011;1219;48.736;9.330;2022-12-18T07:01:24;41.77;;;17.03;;
2416;SDS011;1219;48.736;9.330;2022-12-18T07:03:54;24.37;;;15.73;;
2416;SDS011;1219;48.736;9.330;2022-12-18T07:06:21;35.13;;;16.30;;
2416;SDS011;1219;48.736;9.330;2022-12-18T07:08:47;27.20;;;14.90;;
2416;SDS011;1219;48.736;9.330;2022-12-18T07:11:13;30.67;;;17.17;;
2416;SDS011;1219;48.736;9.330;2022-12-18T07:13:40;30.17;;;15.63;;
2416;SDS011;1219;48.736;9.330;2022-12-18T07:16:10;29.37;;;13.47;;
2416;SDS011;1219;48.736;9.330;2022-12-18T07:18:36;37.53;;;15.83;;
2416;SDS011;1219;48.736;9.330;2022-12-18T07:21:06;29.30;;;16.07;;
2416;SDS011;1219;48.736;9.330;2022-12-18T07:23:32;34.67;;;16.57;;
2416;SDS011;1219;48.736;9.330;2022-12-18T07:26:18;37.53;;;16.70;;
2416;SDS011;1219;48.736;9.330;2022-12-18T07:28:44;28.77;;;16.67;;
2416;SDS011;1219;48.736;9.330;2022-12-18T07:31:14;26.57;;;14.83;;
2416;SDS011;1219;48.736;9.330;2022-12-18T07:33:40;30.80;;;15.50;;
2416;SDS011;1219;48.736;9.330;2022-12-18T07:36:07;21.23;;;13.77;;
2416;SDS011;1219;48.736;9.330;2022-12-18T07:38:33;45.67;;;21.30;;
2416;SDS011;1219;48.736;9.330;2022-12-18T07:41:03;40.53;;;20.47;;
2416;SDS011;1219;48.736;9.330;2022-12-18T07:43:30;33.83;;;19.27;;
2416;SDS011;1219;48.736;9.330;2022-12-18T07:45:56;25.50;;;15.70;;
2416;SDS011;1219;48.736;9.330;2022-12-18T07:48:22;28.63;;;17.30;;
2416;SDS011;1219;48.736;9.330;2022-12-18T07:50:48;28.00;;;16.67;;
2416;SDS011;1219;48.736;9.330;2022-12-18T07:53:14;25.03;;;14.37;;
2416;SDS011;1219;48.736;9.330;2022-12-18T07:55:40;31.67;;;17.17;;
2416;SDS011;1219;48.736;9.330;2022-12-18T07:58:06;27.63;;;17.20;;
2416;SDS011;1219;48.736;9.330;2022-12-18T08:00:33;30.60;;;17.40;;
2416;SDS011;1219;48.736;9.330;2022-12-18T08:02:59;37.67;;;22.70;;
2416;SDS011;1219;48.736;9.330;2022-12-18T08:05:25;37.50;;;20.07;;
2416;SDS011;1219;48.736;9.330;2022-12-18T08:07:51;34.13;;;17.50;;
2416;SDS011;1219;48.736;9.330;2022-12-18T08:10:17;35.83;;;17.80;;
2416;SDS011;1219;48.736;9.330;2022-12-18T08:12:43;34.60;;;19.10;;
2416;SDS011;1219;48.736;9.330;2022-12-18T08:15:09;38.73;;;21.53;;
2416;SDS011;1219;48.736;9.330;2022-12-18T08:17:36;35.47;;;20.50;;
2416;SDS011;1219;48.736;9.330;2022-12-18T08:20:02;36.30;;;19.83;;
2416;SDS011;1219;48.736;9.330;2022-12-18T08:22:28;33.97;;;18.13;;
2416;SDS011;1219;48.736;9.330;2022-12-18T08:24:54;30.13;;;15.80;;
2416;SDS011;1219;48.736;9.330;2022-12-18T08:27:20;31.17;;;15.30;;
2416;SDS011;1219;48.736;9.330;2022-12-18T08:29:46;37.77;;;21.10;;
2416;SDS011;1219;48.736;9.330;2022-12-18T08:32:12;33.97;;;19.60;;
2416;SDS011;1219;48.736;9.330;2022-12-18T08:34:37;30.37;;;15.60;;
2416;SDS011;1219;48.736;9.330;2022-12-18T08:37:03;46.03;;;21.47;;
2416;SDS011;1219;48.736;9.330;2022-12-18T08:39:29;37.37;;;19.67;;
2416;SDS011;1219;48.736;9.330;2022-12-18T08:41:55;45.20;;;21.60;;
2416;SDS011;1219;48.736;9.330;2022-12-18T08:44:40;40.67;;;21.27;;
2416;SDS011;1219;48.736;9.330;2022-12-18T08:47:06;39.57;;;19.80;;
2416;SDS011;1219;48.736;9.330;2022-12-18T08:49:33;40.97;;;21.03;;
2416;SDS011;1219;48.736;9.330;2022-12-18T08:51:59;36.93;;;17.87;;
2416;SDS011;1219;48.736;9.330;2022-12-18T08:54:25;37.27;;;22.00;;
2416;SDS011;1219;48.736;9.330;2022-12-18T08:56:51;35.17;;;17.87;;
2416;SDS011;1219;48.736;9.330;2022-12-18T08:59:17;42.03;;;22.80;;
2416;SDS011;1219;48.736;9.330;2022-12-18T09:01:44;40.53;;;19.60;;
2416;SDS011;1219;48.736;9.330;2022-12-18T09:04:10;39.27;;;19.47;;
2416;SDS011;1219;48.736;9.330;2022-12-18T09:06:36;34.07;;;20.93;;
2416;SDS011;1219;48.736;9.330;2022-12-18T09:09:02;38.73;;;19.30;;
2416;SDS011;1219;48.736;9.330;2022-12-18T09:11:30;42.13;;;23.07;;
2416;SDS011;1219;48.736;9.330;2022-12-18T09:13:57;34.90;;;23.33;;
2416;SDS011;1219;48.736;9.330;2022-12-18T09:16:23;36.43;;;18.90;;
2416;SDS011;1219;48.736;9.330;2022-12-18T09:18:50;33.07;;;20.23;;
2416;SDS011;1219;48.736;9.330;2022-12-18T09:21:18;43.43;;;22.43;;
2416;SDS011;1219;48.736;9.330;2022-12-18T09:23:48;45.47;;;23.60;;
2416;SDS011;1219;48.736;9.330;2022-12-18T09:26:14;42.97;;;23.90;;
2416;SDS011;1219;48.736;9.330;2022-12-18T09:28:40;42.50;;;23.23;;
2416;SDS011;1219;48.736;9.330;2022-12-18T09:31:07;47.70;;;23.10;;
2416;SDS011;1219;48.736;9.330;2022-12-18T09:33:34;39.70;;;20.47;;
2416;SDS011;1219;48.736;9.330;2022-12-18T09:36:01;44.67;;;21.77;;
2416;SDS011;1219;48.736;9.330;2022-12-18T09:38:27;48.83;;;24.80;;
2416;SDS011;1219;48.736;9.330;2022-12-18T09:40:53;45.97;;;21.97;;
2416;SDS011;1219;48.736;9.330;2022-12-18T09:43:31;35.37;;;19.77;;
2416;SDS011;1219;48.736;9.330;2022-12-18T09:46:00;48.87;;;23.83;;
2416;SDS011;1219;48.736;9.330;2022-12-18T09:48:31;40.13;;;17.90;;
2416;SDS011;1219;48.736;9.330;2022-12-18T09:51:03;43.63;;;22.20;;
2416;SDS011;1219;48.736;9.330;2022-12-18T09:53:30;40.07;;;24.97;;
2416;SDS011;1219;48.736;9.330;2022-12-18T09:55:57;40.00;;;23.57;;
2416;SDS011;1219;48.736;9.330;2022-12-18T09:58:30;41.30;;;22.60;;
2416;SDS011;1219;48.736;9.330;2022-12-18T10:00:58;42.33;;;20.67;;
2416;SDS011;1219;48.736;9.330;2022-12-18T10:03:24;44.97;;;21.70;;
2416;SDS011;1219;48.736;9.330;2022-12-18T10:13:51;50.20;;;25.60;;
2416;SDS011;1219;48.736;9.330;2022-12-18T10:19:10;47.10;;;23.93;;
2416;SDS011;1219;48.736;9.330;2022-12-18T10:21:45;48.70;;;24.90;;
2416;SDS011;1219;48.736;9.330;2022-12-18T10:26:39;47.97;;;27.80;;
2416;SDS011;1219;48.736;9.330;2022-12-18T10:29:12;43.87;;;21.27;;
2416;SDS011;1219;48.736;9.330;2022-12-18T10:31:39;50.27;;;26.67;;
2416;SDS011;1219;48.736;9.330;2022-12-18T10:34:09;57.63;;;29.30;;
2416;SDS011;1219;48.736;9.330;2022-12-18T10:36:35;48.13;;;28.40;;
2416;SDS011;1219;48.736;9.330;2022-12-18T10:39:18;48.17;;;28.47;;
2416;SDS011;1219;48.736;9.330;2022-12-18T10:41:44;39.90;;;26.80;;
2416;SDS011;1219;48.736;9.330;2022-12-18T10:44:23;55.40;;;30.00;;
2416;SDS011;1219;48.736;9.330;2022-12-18T10:46:54;47.77;;;27.37;;
2416;SDS011;1219;48.736;9.330;2022-12-18T10:49:25;49.63;;;27.30;;
2416;SDS011;1219;48.736;9.330;2022-12-18T10:51:51;41.00;;;27.63;;
2416;SDS011;1219;48.736;9.330;2022-12-18T10:54:29;45.07;;;29.40;;
2416;SDS011;1219;48.736;9.330;2022-12-18T10:57:13;62.60;;;32.37;;
2416;SDS011;1219;48.736;9.330;2022-12-18T10:59:49;49.87;;;30.57;;
2416;SDS011;1219;48.736;9.330;2022-12-18T11:02:25;48.87;;;27.80;;
2416;SDS011;1219;48.736;9.330;2022-12-18T11:04:52;44.47;;;27.60;;
2416;SDS011;1219;48.736;9.330;2022-12-18T11:07:18;46.10;;;26.87;;
2416;SDS011;1219;48.736;9.330;2022-12-18T11:09:45;47.70;;;29.50;;
2416;SDS011;1219;48.736;9.330;2022-12-18T11:12:24;43.00;;;26.70;;
2416;SDS011;1219;48.736;9.330;2022-12-18T11:14:51;49.10;;;26.57;;
2416;SDS011;1219;48.736;9.330;2022-12-18T11:17:18;49.97;;;29.57;;
2416;SDS011;1219;48.736;9.330;2022-12-18T11:19:44;47.40;;;27.83;;
2416;SDS011;1219;48.736;9.330;2022-12-18T11:22:23;43.83;;;29.13;;
2416;SDS011;1219;48.736;9.330;2022-12-18T11:25:01;46.50;;;29.37;;
2416;SDS011;1219;48.736;9.330;2022-12-18T11:27:28;50.97;;;29.10;;
2416;SDS011;1219;48.736;9.330;2022-12-18T11:30:06;40.10;;;28.37;;
2416;SDS011;1219;48.736;9.330;2022-12-18T11:32:37;60.13;;;28.60;;
2416;SDS011;1219;48.736;9.330;2022-12-18T11:35:20;59.00;;;31.10;;
2416;SDS011;1219;48.736;9.330;2022-12-18T11:37:56;52.87;;;32.47;;
2416;SDS011;1219;48.736;9.330;2022-12-18T11:40:30;49.17;;;30.33;;
2416;SDS011;1219;48.736;9.330;2022-12-18T11:43:08;60.67;;;32.63;;
2416;SDS011;1219;48.736;9.330;2022-12-18T11:45:40;50.17;;;29.23;;
2416;SDS011;1219;48.736;9.330;2022-12-18T11:48:16;46.97;;;31.37;;
2416;SDS011;1219;48.736;9.330;2022-12-18T11:50:50;52.73;;;29.90;;
2416;SDS011;1219;48.736;9.330;2022-12-18T11:53:17;51.20;;;29.00;;
2416;SDS011;1219;48.736;9.330;2022-12-18T11:55:49;53.97;;;29.80;;
2416;SDS011;1219;48.736;9.330;2022-12-18T12:00:50;51.43;;;29.93;;
2416;SDS011;1219;48.736;9.330;2022-12-18T12:03:39;48.90;;;28.20;;
2416;SDS011;1219;48.736;9.330;2022-12-18T12:14:25;55.77;;;30.17;;
2416;SDS011;1219;48.736;9.330;2022-12-18T12:16:56;47.80;;;27.20;;
2416;SDS011;1219;48.736;9.330;2022-12-18T12:19:31;49.47;;;28.47;;
2416;SDS011;1219;48.736;9.330;2022-12-18T12:22:04;50.83;;;28.37;;
2416;SDS011;1219;48.736;9.330;2022-12-18T12:25:07;46.50;;;28.20;;
2416;SDS011;1219;48.736;9.330;2022-12-18T12:33:18;42.90;;;28.43;;
2416;SDS011;1219;48.736;9.330;2022-12-18T12:38:42;52.30;;;28.53;;
2416;SDS011;1219;48.736;9.330;2022-12-18T12:41:12;51.40;;;26.47;;
2416;SDS011;1219;48.736;9.330;2022-12-18T12:43:58;43.67;;;27.47;;
2416;SDS011;1219;48.736;9.330;2022-12-18T12:46:25;51.07;;;27.73;;
2416;SDS011;1219;48.736;9.330;2022-12-18T12:48:52;54.10;;;31.10;;
2416;SDS011;1219;48.736;9.330;2022-12-18T12:51:21;45.80;;;29.00;;
2416;SDS011;1219;48.736;9.330;2022-12-18T12:53:48;51.40;;;29.80;;
2416;SDS011;1219;48.736;9.330;2022-12-18T12:56:15;46.30;;;30.17;;
2416;SDS011;1219;48.736;9.330;2022-12-18T13:09:00;43.30;;;27.90;;
2416;SDS011;1219;48.736;9.330;2022-12-18T13:14:22;47.90;;;29.97;;
2416;SDS011;1219;48.736;9.330;2022-12-18T13:16:48;45.40;;;27.87;;
2416;SDS011;1219;48.736;9.330;2022-12-18T13:19:21;52.33;;;29.70;;
2416;SDS011;1219;48.736;9.330;2022-12-18T13:21:52;49.53;;;28.40;;
2416;SDS011;1219;48.736;9.330;2022-12-18T13:24:23;41.90;;;28.37;;
2416;SDS011;1219;48.736;9.330;2022-12-18T13:26:50;46.37;;;28.60;;
2416;SDS011;1219;48.736;9.330;2022-12-18T13:32:01;42.10;;;28.20;;
2416;SDS011;1219;48.736;9.330;2022-12-18T13:34:28;43.70;;;27.93;;
2416;SDS011;1219;48.736;9.330;2022-12-18T13:36:56;45.57;;;27.97;;
2416;SDS011;1219;48.736;9.330;2022-12-18T13:39:26;49.73;;;28.10;;
2416;SDS011;1219;48.736;9.330;2022-12-18T13:44:36;54.87;;;31.20;;
2416;SDS011;1219;48.736;9.330;2022-12-18T13:47:05;51.43;;;31.47;;
2416;SDS011;1219;48.736;9.330;2022-12-18T13:49:40;51.77;;;27.87;;
2416;SDS011;1219;48.736;9.330;2022-12-18T13:52:17;48.33;;;28.63;;
2416;SDS011;1219;48.736;9.330;2022-12-18T13:54:45;50.73;;;29.73;;
2416;SDS011;1219;48.736;9.330;2022-12-18T13:57:28;55.30;;;34.30;;
2416;SDS011;1219;48.736;9.330;2022-12-18T13:59:55;43.37;;;27.97;;
2416;SDS011;1219;48.736;9.330;2022-12-18T14:02:25;49.07;;;29.80;;
2416;SDS011;1219;48.736;9.330;2022-12-18T14:04:52;59.53;;;29.63;;
2416;SDS011;1219;48.736;9.330;2022-12-18T14:07:19;42.77;;;26.40;;
2416;SDS011;1219;48.736;9.330;2022-12-18T14:09:47;53.10;;;31.33;;
2416;SDS011;1219;48.736;9.330;2022-12-18T14:12:15;41.80;;;26.40;;
2416;SDS011;1219;48.736;9.330;2022-12-18T14:15:02;48.37;;;28.27;;
2416;SDS011;1219;48.736;9.330;2022-12-18T14:17:28;51.47;;;29.30;;
2416;SDS011;1219;48.736;9.330;2022-12-18T14:19:56;45.50;;;27.53;;
2416;SDS011;1219;48.736;9.330;2022-12-18T14:22:23;54.67;;;28.30;;
2416;SDS011;1219;48.736;9.330;2022-12-18T14:27:59;63.93;;;35.17;;
2416;SDS011;1219;48.736;9.330;2022-12-18T14:30:29;49.23;;;30.77;;
2416;SDS011;1219;48.736;9.330;2022-12-18T14:33:02;50.97;;;28.27;;
2416;SDS011;1219;48.736;9.330;2022-12-18T14:35:28;48.90;;;29.07;;
2416;SDS011;1219;48.736;9.330;2022-12-18T14:38:08;50.97;;;30.87;;
2416;SDS011;1219;48.736;9.330;2022-12-18T14:40:34;54.37;;;29.00;;
2416;SDS011;1219;48.736;9.330;2022-12-18T14:43:00;65.77;;;35.57;;
2416;SDS011;1219;48.736;9.330;2022-12-18T14:47:58;62.30;;;33.73;;
2416;SDS011;1219;48.736;9.330;2022-12-18T14:50:24;54.90;;;30.80;;
2416;SDS011;1219;48.736;9.330;2022-12-18T14:52:51;70.77;;;35.07;;
2416;SDS011;1219;48.736;9.330;2022-12-18T14:55:17;65.77;;;36.17;;
2416;SDS011;1219;48.736;9.330;2022-12-18T14:57:44;57.97;;;33.00;;
2416;SDS011;1219;48.736;9.330;2022-12-18T15:00:20;56.27;;;30.87;;
2416;SDS011;1219;48.736;9.330;2022-12-18T15:02:48;43.80;;;27.00;;
2416;SDS011;1219;48.736;9.330;2022-12-18T15:05:17;50.60;;;26.20;;
2416;SDS011;1219;48.736;9.330;2022-12-18T15:07:46;39.90;;;23.87;;
2416;SDS011;1219;48.736;9.330;2022-12-18T15:12:40;41.47;;;26.10;;
2416;SDS011;1219;48.736;9.330;2022-12-18T15:18:00;47.13;;;28.37;;
2416;SDS011;1219;48.736;9.330;2022-12-18T15:20:26;47.53;;;28.17;;
2416;SDS011;1219;48.736;9.330;2022-12-18T15:22:52;55.90;;;31.80;;
2416;SDS011;1219;48.736;9.330;2022-12-18T15:27:57;54.90;;;31.77;;
2416;SDS011;1219;48.736;9.330;2022-12-18T15:30:23;58.57;;;33.10;;
2416;SDS011;1219;48.736;9.330;2022-12-18T15:32:50;56.20;;;32.37;;
2416;SDS011;1219;48.736;9.330;2022-12-18T15:35:18;53.07;;;30.60;;
2416;SDS011;1219;48.736;9.330;2022-12-18T15:37:44;51.00;;;29.33;;
2416;SDS011;1219;48.736;9.330;2022-12-18T15:40:17;57.93;;;30.20;;
2416;SDS011;1219;48.736;9.330;2022-12-18T15:42:44;56.07;;;30.40;;
2416;SDS011;1219;48.736;9.330;2022-12-18T15:45:29;50.73;;;27.17;;
2416;SDS011;1219;48.736;9.330;2022-12-18T15:47:55;46.20;;;27.00;;
2416;SDS011;1219;48.736;9.330;2022-12-18T15:50:21;56.23;;;27.63;;
2416;SDS011;1219;48.736;9.330;2022-12-18T15:52:48;59.53;;;29.40;;
2416;SDS011;1219;48.736;9.330;2022-12-18T15:55:15;53.40;;;31.17;;
2416;SDS011;1219;48.736;9.330;2022-12-18T15:58:01;57.97;;;28.30;;
2416;SDS011;1219;48.736;9.330;2022-12-18T16:00:27;48.50;;;27.93;;
2416;SDS011;1219;48.736;9.330;2022-12-18T16:02:53;46.13;;;26.57;;
2416;SDS011;1219;48.736;9.330;2022-12-18T16:05:19;47.97;;;28.70;;
2416;SDS011;1219;48.736;9.330;2022-12-18T16:07:46;55.63;;;30.50;;
2416;SDS011;1219;48.736;9.330;2022-12-18T16:10:12;52.47;;;32.30;;
2416;SDS011;1219;48.736;9.330;2022-12-18T16:12:38;54.57;;;33.07;;
2416;SDS011;1219;48.736;9.330;2022-12-18T16:15:05;60.87;;;32.30;;
2416;SDS011;1219;48.736;9.330;2022-12-18T16:17:31;52.40;;;29.43;;
2416;SDS011;1219;48.736;9.330;2022-12-18T16:19:57;57.13;;;32.20;;
2416;SDS011;1219;48.736;9.330;2022-12-18T16:22:24;56.77;;;28.80;;
2416;SDS011;1219;48.736;9.330;2022-12-18T16:24:51;58.93;;;31.53;;
2416;SDS011;1219;48.736;9.330;2022-12-18T16:27:18;53.53;;;28.90;;